sensor_id;sensor_type;location;lat;lon;timestamp;P1;durP1;ratioP1;P2;durP2;ratioP2
25936;SDS011;13733;51.178;4.450;2023-03-23T00:00:42;5.80;;;3.75;;
25936;SDS011;13733;51.178;4.450;2023-03-23T00:03:09;6.07;;;3.60;;
25936;SDS011;13733;51.178;4.450;2023-03-23T00:05:34;6.75;;;3.92;;
25936;SDS011;13733;51.178;4.450;2023-03-23T00:08:02;6.40;;;3.78;;
25936;SDS011;13733;51.178;4.450;2023-03-23T00:10:28;5.82;;;3.83;;
25936;SDS011;13733;51.178;4.450;2023-03-23T00:12:58;4.32;;;3.65;;
25936;SDS011;13733;51.178;4.450;2023-03-23T00:15:27;9.00;;;3.85;;
25936;SDS011;13733;51.178;4.450;2023-03-23T00:18:01;6.13;;;3.90;;
25936;SDS011;13733;51.178;4.450;2023-03-23T00:20:30;5.25;;;4.10;;
25936;SDS011;13733;51.178;4.450;2023-03-23T00:23:05;8.18;;;4.45;;
25936;SDS011;13733;51.178;4.450;2023-03-23T00:25:32;7.03;;;3.95;;
25936;SDS011;13733;51.178;4.450;2023-03-23T00:27:57;6.43;;;3.83;;
25936;SDS011;13733;51.178;4.450;2023-03-23T00:30:23;4.68;;;3.60;;
25936;SDS011;13733;51.178;4.450;2023-03-23T00:32:49;6.63;;;3.78;;
25936;SDS011;13733;51.178;4.450;2023-03-23T00:35:16;9.35;;;4.50;;
25936;SDS011;13733;51.178;4.450;2023-03-23T00:37:43;6.68;;;3.95;;
25936;SDS011;13733;51.178;4.450;2023-03-23T00:40:12;4.45;;;3.78;;
25936;SDS011;13733;51.178;4.450;2023-03-23T00:42:37;5.10;;;3.97;;
25936;SDS011;13733;51.178;4.450;2023-03-23T00:45:04;8.15;;;4.35;;
25936;SDS011;13733;51.178;4.450;2023-03-23T00:47:36;6.55;;;4.00;;
25936;SDS011;13733;51.178;4.450;2023-03-23T00:50:03;5.22;;;4.45;;
25936;SDS011;13733;51.178;4.450;2023-03-23T00:52:30;4.75;;;3.95;;
25936;SDS011;13733;51.178;4.450;2023-03-23T00:54:56;5.85;;;4.00;;
25936;SDS011;13733;51.178;4.450;2023-03-23T00:57:24;6.25;;;4.43;;
25936;SDS011;13733;51.178;4.450;2023-03-23T00:59:53;5.45;;;4.20;;
25936;SDS011;13733;51.178;4.450;2023-03-23T01:02:18;5.78;;;4.28;;
25936;SDS011;13733;51.178;4.450;2023-03-23T01:04:44;8.18;;;4.43;;
25936;SDS011;13733;51.178;4.450;2023-03-23T01:07:10;6.93;;;4.05;;
25936;SDS011;13733;51.178;4.450;2023-03-23T01:09:39;10.80;;;4.55;;
25936;SDS011;13733;51.178;4.450;2023-03-23T01:12:05;5.93;;;4.30;;
25936;SDS011;13733;51.178;4.450;2023-03-23T01:14:31;6.68;;;4.05;;
25936;SDS011;13733;51.178;4.450;2023-03-23T01:16:57;8.25;;;3.95;;
25936;SDS011;13733;51.178;4.450;2023-03-23T01:19:23;7.80;;;4.10;;
25936;SDS011;13733;51.178;4.450;2023-03-23T01:21:48;3.88;;;3.40;;
25936;SDS011;13733;51.178;4.450;2023-03-23T01:24:14;7.78;;;4.53;;
25936;SDS011;13733;51.178;4.450;2023-03-23T01:26:40;8.40;;;4.00;;
25936;SDS011;13733;51.178;4.450;2023-03-23T01:29:06;7.60;;;3.75;;
25936;SDS011;13733;51.178;4.450;2023-03-23T01:31:33;6.68;;;3.47;;
25936;SDS011;13733;51.178;4.450;2023-03-23T01:34:01;6.78;;;4.28;;
25936;SDS011;13733;51.178;4.450;2023-03-23T01:36:29;6.90;;;3.47;;
25936;SDS011;13733;51.178;4.450;2023-03-23T01:39:00;5.30;;;3.60;;
25936;SDS011;13733;51.178;4.450;2023-03-23T01:41:29;6.80;;;3.25;;
25936;SDS011;13733;51.178;4.450;2023-03-23T01:46:59;7.00;;;3.70;;
25936;SDS011;13733;51.178;4.450;2023-03-23T01:49:26;4.93;;;3.45;;
25936;SDS011;13733;51.178;4.450;2023-03-23T01:52:00;6.38;;;3.70;;
25936;SDS011;13733;51.178;4.450;2023-03-23T01:54:29;4.00;;;3.30;;
25936;SDS011;13733;51.178;4.450;2023-03-23T01:56:58;5.90;;;3.63;;
25936;SDS011;13733;51.178;4.450;2023-03-23T01:59:27;5.88;;;3.40;;
25936;SDS011;13733;51.178;4.450;2023-03-23T02:02:14;6.22;;;3.58;;
25936;SDS011;13733;51.178;4.450;2023-03-23T02:04:41;5.60;;;3.10;;
25936;SDS011;13733;51.178;4.450;2023-03-23T02:07:08;4.88;;;3.30;;
25936;SDS011;13733;51.178;4.450;2023-03-23T02:09:34;4.65;;;3.45;;
25936;SDS011;13733;51.178;4.450;2023-03-23T02:12:00;4.85;;;3.63;;
25936;SDS011;13733;51.178;4.450;2023-03-23T02:14:27;5.15;;;3.30;;
25936;SDS011;13733;51.178;4.450;2023-03-23T02:17:08;5.40;;;3.50;;
25936;SDS011;13733;51.178;4.450;2023-03-23T02:23:02;3.90;;;3.30;;
25936;SDS011;13733;51.178;4.450;2023-03-23T02:28:55;5.88;;;3.17;;
25936;SDS011;13733;51.178;4.450;2023-03-23T02:34:11;4.20;;;2.95;;
25936;SDS011;13733;51.178;4.450;2023-03-23T02:36:45;6.28;;;3.20;;
25936;SDS011;13733;51.178;4.450;2023-03-23T02:42:05;6.75;;;3.10;;
25936;SDS011;13733;51.178;4.450;2023-03-23T02:44:34;6.47;;;2.90;;
25936;SDS011;13733;51.178;4.450;2023-03-23T02:47:04;3.63;;;2.30;;
25936;SDS011;13733;51.178;4.450;2023-03-23T02:49:34;6.60;;;2.63;;
25936;SDS011;13733;51.178;4.450;2023-03-23T02:52:04;5.60;;;2.50;;
25936;SDS011;13733;51.178;4.450;2023-03-23T02:56:58;7.47;;;2.08;;
25936;SDS011;13733;51.178;4.450;2023-03-23T02:59:28;8.50;;;2.30;;
25936;SDS011;13733;51.178;4.450;2023-03-23T03:01:55;8.40;;;2.80;;
25936;SDS011;13733;51.178;4.450;2023-03-23T03:04:29;8.20;;;2.53;;
25936;SDS011;13733;51.178;4.450;2023-03-23T03:07:02;8.05;;;2.42;;
25936;SDS011;13733;51.178;4.450;2023-03-23T03:09:53;6.53;;;2.30;;
25936;SDS011;13733;51.178;4.450;2023-03-23T03:12:33;6.95;;;2.03;;
25936;SDS011;13733;51.178;4.450;2023-03-23T03:18:00;6.88;;;1.92;;
25936;SDS011;13733;51.178;4.450;2023-03-23T03:20:54;7.30;;;2.38;;
25936;SDS011;13733;51.178;4.450;2023-03-23T03:23:24;7.28;;;2.53;;
25936;SDS011;13733;51.178;4.450;2023-03-23T03:25:54;9.43;;;2.10;;
25936;SDS011;13733;51.178;4.450;2023-03-23T03:28:31;7.32;;;2.13;;
25936;SDS011;13733;51.178;4.450;2023-03-23T03:30:58;9.10;;;2.33;;
25936;SDS011;13733;51.178;4.450;2023-03-23T03:33:29;8.70;;;2.20;;
25936;SDS011;13733;51.178;4.450;2023-03-23T03:36:00;10.50;;;2.15;;
25936;SDS011;13733;51.178;4.450;2023-03-23T03:38:28;8.68;;;2.15;;
25936;SDS011;13733;51.178;4.450;2023-03-23T03:40:55;7.90;;;2.60;;
25936;SDS011;13733;51.178;4.450;2023-03-23T03:43:22;8.98;;;2.05;;
25936;SDS011;13733;51.178;4.450;2023-03-23T03:45:48;7.22;;;2.50;;
25936;SDS011;13733;51.178;4.450;2023-03-23T03:48:14;8.07;;;1.90;;
25936;SDS011;13733;51.178;4.450;2023-03-23T03:50:39;7.50;;;2.20;;
25936;SDS011;13733;51.178;4.450;2023-03-23T03:53:06;6.72;;;2.40;;
25936;SDS011;13733;51.178;4.450;2023-03-23T03:55:32;7.60;;;2.38;;
25936;SDS011;13733;51.178;4.450;2023-03-23T03:58:04;6.70;;;2.20;;
25936;SDS011;13733;51.178;4.450;2023-03-23T04:00:52;7.35;;;2.13;;
25936;SDS011;13733;51.178;4.450;2023-03-23T04:03:24;9.45;;;2.28;;
25936;SDS011;13733;51.178;4.450;2023-03-23T04:06:03;5.93;;;1.73;;
25936;SDS011;13733;51.178;4.450;2023-03-23T04:08:29;8.52;;;2.00;;
25936;SDS011;13733;51.178;4.450;2023-03-23T04:10:55;6.53;;;2.17;;
25936;SDS011;13733;51.178;4.450;2023-03-23T04:13:22;7.72;;;2.25;;
25936;SDS011;13733;51.178;4.450;2023-03-23T04:16:07;6.43;;;1.92;;
25936;SDS011;13733;51.178;4.450;2023-03-23T04:18:34;5.75;;;1.98;;
25936;SDS011;13733;51.178;4.450;2023-03-23T04:21:00;8.13;;;1.90;;
25936;SDS011;13733;51.178;4.450;2023-03-23T04:23:28;12.73;;;2.85;;
25936;SDS011;13733;51.178;4.450;2023-03-23T04:25:56;8.48;;;2.25;;
25936;SDS011;13733;51.178;4.450;2023-03-23T04:28:32;8.00;;;2.10;;
25936;SDS011;13733;51.178;4.450;2023-03-23T04:31:17;8.82;;;2.53;;
25936;SDS011;13733;51.178;4.450;2023-03-23T04:33:47;8.85;;;2.67;;
25936;SDS011;13733;51.178;4.450;2023-03-23T04:36:13;9.60;;;2.67;;
25936;SDS011;13733;51.178;4.450;2023-03-23T04:38:49;8.23;;;2.72;;
25936;SDS011;13733;51.178;4.450;2023-03-23T04:41:21;8.07;;;2.30;;
25936;SDS011;13733;51.178;4.450;2023-03-23T04:44:00;10.45;;;2.70;;
25936;SDS011;13733;51.178;4.450;2023-03-23T04:46:33;12.00;;;2.80;;
25936;SDS011;13733;51.178;4.450;2023-03-23T04:49:05;6.22;;;2.33;;
25936;SDS011;13733;51.178;4.450;2023-03-23T04:51:35;9.23;;;2.35;;
25936;SDS011;13733;51.178;4.450;2023-03-23T04:54:12;8.90;;;2.17;;
25936;SDS011;13733;51.178;4.450;2023-03-23T04:56:40;9.40;;;2.53;;
25936;SDS011;13733;51.178;4.450;2023-03-23T04:59:10;12.57;;;3.13;;
25936;SDS011;13733;51.178;4.450;2023-03-23T05:01:49;11.52;;;3.22;;
25936;SDS011;13733;51.178;4.450;2023-03-23T05:04:17;9.50;;;2.22;;
25936;SDS011;13733;51.178;4.450;2023-03-23T05:06:56;12.40;;;2.58;;
25936;SDS011;13733;51.178;4.450;2023-03-23T05:09:26;8.02;;;2.25;;
25936;SDS011;13733;51.178;4.450;2023-03-23T05:11:53;9.95;;;2.55;;
25936;SDS011;13733;51.178;4.450;2023-03-23T05:14:20;13.93;;;2.80;;
25936;SDS011;13733;51.178;4.450;2023-03-23T05:16:57;9.30;;;2.63;;
25936;SDS011;13733;51.178;4.450;2023-03-23T05:19:24;12.70;;;2.33;;
25936;SDS011;13733;51.178;4.450;2023-03-23T05:21:52;14.68;;;2.70;;
25936;SDS011;13733;51.178;4.450;2023-03-23T05:24:19;10.38;;;2.53;;
25936;SDS011;13733;51.178;4.450;2023-03-23T05:26:46;7.75;;;2.22;;
25936;SDS011;13733;51.178;4.450;2023-03-23T05:29:17;12.93;;;2.50;;
25936;SDS011;13733;51.178;4.450;2023-03-23T05:31:53;10.07;;;2.35;;
25936;SDS011;13733;51.178;4.450;2023-03-23T05:34:21;9.55;;;2.42;;
25936;SDS011;13733;51.178;4.450;2023-03-23T05:39:37;13.48;;;2.60;;
25936;SDS011;13733;51.178;4.450;2023-03-23T05:42:22;10.70;;;2.55;;
25936;SDS011;13733;51.178;4.450;2023-03-23T05:45:00;11.82;;;2.80;;
25936;SDS011;13733;51.178;4.450;2023-03-23T05:47:30;9.37;;;2.20;;
25936;SDS011;13733;51.178;4.450;2023-03-23T05:50:03;8.32;;;2.08;;
25936;SDS011;13733;51.178;4.450;2023-03-23T05:55:01;9.52;;;2.58;;
25936;SDS011;13733;51.178;4.450;2023-03-23T05:57:30;9.38;;;2.03;;
25936;SDS011;13733;51.178;4.450;2023-03-23T06:00:03;10.10;;;2.85;;
25936;SDS011;13733;51.178;4.450;2023-03-23T06:02:41;8.55;;;2.53;;
25936;SDS011;13733;51.178;4.450;2023-03-23T06:05:12;9.20;;;2.47;;
25936;SDS011;13733;51.178;4.450;2023-03-23T06:07:43;9.10;;;2.42;;
25936;SDS011;13733;51.178;4.450;2023-03-23T06:10:09;12.00;;;2.88;;
25936;SDS011;13733;51.178;4.450;2023-03-23T06:12:40;10.77;;;2.90;;
25936;SDS011;13733;51.178;4.450;2023-03-23T06:15:24;10.35;;;3.15;;
25936;SDS011;13733;51.178;4.450;2023-03-23T06:18:09;7.45;;;2.70;;
25936;SDS011;13733;51.178;4.450;2023-03-23T06:21:00;9.10;;;2.72;;
25936;SDS011;13733;51.178;4.450;2023-03-23T06:23:45;12.73;;;2.78;;
25936;SDS011;13733;51.178;4.450;2023-03-23T06:26:14;11.73;;;2.92;;
25936;SDS011;13733;51.178;4.450;2023-03-23T06:28:46;10.02;;;2.78;;
25936;SDS011;13733;51.178;4.450;2023-03-23T06:31:12;12.95;;;2.88;;
25936;SDS011;13733;51.178;4.450;2023-03-23T06:33:39;9.25;;;2.95;;
25936;SDS011;13733;51.178;4.450;2023-03-23T06:36:23;12.63;;;3.30;;
25936;SDS011;13733;51.178;4.450;2023-03-23T06:39:21;7.15;;;1.98;;
25936;SDS011;13733;51.178;4.450;2023-03-23T06:42:10;10.75;;;1.80;;
25936;SDS011;13733;51.178;4.450;2023-03-23T06:47:06;7.60;;;1.83;;
25936;SDS011;13733;51.178;4.450;2023-03-23T06:49:35;10.77;;;1.95;;
25936;SDS011;13733;51.178;4.450;2023-03-23T06:52:18;5.15;;;2.03;;
25936;SDS011;13733;51.178;4.450;2023-03-23T06:54:44;8.35;;;2.28;;
25936;SDS011;13733;51.178;4.450;2023-03-23T06:57:11;5.82;;;1.98;;
25936;SDS011;13733;51.178;4.450;2023-03-23T06:59:37;8.98;;;2.72;;
25936;SDS011;13733;51.178;4.450;2023-03-23T07:02:04;7.07;;;1.88;;
25936;SDS011;13733;51.178;4.450;2023-03-23T07:04:31;11.70;;;2.47;;
25936;SDS011;13733;51.178;4.450;2023-03-23T07:07:08;10.10;;;2.80;;
25936;SDS011;13733;51.178;4.450;2023-03-23T07:09:44;9.95;;;2.83;;
25936;SDS011;13733;51.178;4.450;2023-03-23T07:12:11;9.93;;;2.83;;
25936;SDS011;13733;51.178;4.450;2023-03-23T07:14:43;5.88;;;2.90;;
25936;SDS011;13733;51.178;4.450;2023-03-23T07:17:08;8.75;;;3.25;;
25936;SDS011;13733;51.178;4.450;2023-03-23T07:19:39;11.98;;;3.13;;
25936;SDS011;13733;51.178;4.450;2023-03-23T07:22:08;6.60;;;2.67;;
25936;SDS011;13733;51.178;4.450;2023-03-23T07:24:34;8.32;;;3.28;;
25936;SDS011;13733;51.178;4.450;2023-03-23T07:27:21;6.38;;;2.55;;
25936;SDS011;13733;51.178;4.450;2023-03-23T07:29:50;7.53;;;2.55;;
25936;SDS011;13733;51.178;4.450;2023-03-23T07:32:24;8.98;;;2.70;;
25936;SDS011;13733;51.178;4.450;2023-03-23T07:34:50;5.32;;;2.25;;
25936;SDS011;13733;51.178;4.450;2023-03-23T07:37:41;8.18;;;2.80;;
25936;SDS011;13733;51.178;4.450;2023-03-23T07:40:07;6.78;;;2.10;;
25936;SDS011;13733;51.178;4.450;2023-03-23T07:42:44;7.07;;;2.10;;
25936;SDS011;13733;51.178;4.450;2023-03-23T07:45:22;6.90;;;2.25;;
25936;SDS011;13733;51.178;4.450;2023-03-23T07:47:48;5.97;;;2.25;;
25936;SDS011;13733;51.178;4.450;2023-03-23T07:50:13;8.48;;;3.17;;
25936;SDS011;13733;51.178;4.450;2023-03-23T07:52:41;5.15;;;2.38;;
25936;SDS011;13733;51.178;4.450;2023-03-23T07:55:09;6.60;;;2.42;;
25936;SDS011;13733;51.178;4.450;2023-03-23T07:57:59;4.93;;;2.20;;
25936;SDS011;13733;51.178;4.450;2023-03-23T08:00:26;7.93;;;2.60;;
25936;SDS011;13733;51.178;4.450;2023-03-23T08:02:54;4.97;;;2.53;;
25936;SDS011;13733;51.178;4.450;2023-03-23T08:05:43;5.90;;;2.75;;
25936;SDS011;13733;51.178;4.450;2023-03-23T08:08:12;10.30;;;3.10;;
25936;SDS011;13733;51.178;4.450;2023-03-23T08:10:57;6.10;;;2.30;;
25936;SDS011;13733;51.178;4.450;2023-03-23T08:13:35;6.90;;;2.33;;
25936;SDS011;13733;51.178;4.450;2023-03-23T08:16:39;8.95;;;2.97;;
25936;SDS011;13733;51.178;4.450;2023-03-23T08:19:05;5.53;;;2.10;;
25936;SDS011;13733;51.178;4.450;2023-03-23T08:21:49;5.65;;;2.13;;
25936;SDS011;13733;51.178;4.450;2023-03-23T08:24:18;4.43;;;2.10;;
25936;SDS011;13733;51.178;4.450;2023-03-23T08:26:44;8.20;;;1.80;;
25936;SDS011;13733;51.178;4.450;2023-03-23T08:29:18;6.68;;;1.95;;
25936;SDS011;13733;51.178;4.450;2023-03-23T08:31:57;5.43;;;1.90;;
25936;SDS011;13733;51.178;4.450;2023-03-23T08:34:51;12.48;;;1.95;;
25936;SDS011;13733;51.178;4.450;2023-03-23T08:37:40;6.80;;;1.67;;
25936;SDS011;13733;51.178;4.450;2023-03-23T08:40:18;6.35;;;1.73;;
25936;SDS011;13733;51.178;4.450;2023-03-23T08:42:55;4.40;;;1.55;;
25936;SDS011;13733;51.178;4.450;2023-03-23T08:45:39;8.45;;;2.20;;
25936;SDS011;13733;51.178;4.450;2023-03-23T08:48:21;5.25;;;1.73;;
25936;SDS011;13733;51.178;4.450;2023-03-23T08:51:06;6.38;;;1.63;;
25936;SDS011;13733;51.178;4.450;2023-03-23T08:53:53;8.43;;;2.22;;
25936;SDS011;13733;51.178;4.450;2023-03-23T08:56:39;6.43;;;1.70;;
25936;SDS011;13733;51.178;4.450;2023-03-23T08:59:06;9.85;;;2.38;;
25936;SDS011;13733;51.178;4.450;2023-03-23T09:01:53;6.93;;;2.00;;
25936;SDS011;13733;51.178;4.450;2023-03-23T09:04:24;6.20;;;2.03;;
25936;SDS011;13733;51.178;4.450;2023-03-23T09:07:17;5.30;;;2.15;;
25936;SDS011;13733;51.178;4.450;2023-03-23T09:09:44;6.57;;;1.88;;
25936;SDS011;13733;51.178;4.450;2023-03-23T09:12:10;7.22;;;1.90;;
25936;SDS011;13733;51.178;4.450;2023-03-23T09:14:36;5.38;;;2.03;;
25936;SDS011;13733;51.178;4.450;2023-03-23T09:17:03;8.05;;;2.25;;
25936;SDS011;13733;51.178;4.450;2023-03-23T09:19:30;7.80;;;2.05;;
25936;SDS011;13733;51.178;4.450;2023-03-23T09:21:58;8.15;;;2.28;;
25936;SDS011;13733;51.178;4.450;2023-03-23T09:24:25;6.40;;;1.98;;
25936;SDS011;13733;51.178;4.450;2023-03-23T09:26:51;12.68;;;2.47;;
25936;SDS011;13733;51.178;4.450;2023-03-23T09:29:17;17.88;;;2.85;;
25936;SDS011;13733;51.178;4.450;2023-03-23T09:31:43;10.05;;;2.17;;
25936;SDS011;13733;51.178;4.450;2023-03-23T09:34:11;6.72;;;2.17;;
25936;SDS011;13733;51.178;4.450;2023-03-23T09:36:38;9.73;;;2.60;;
25936;SDS011;13733;51.178;4.450;2023-03-23T09:39:07;9.23;;;2.88;;
25936;SDS011;13733;51.178;4.450;2023-03-23T09:47:43;12.82;;;2.47;;
25936;SDS011;13733;51.178;4.450;2023-03-23T09:50:15;11.27;;;2.95;;
25936;SDS011;13733;51.178;4.450;2023-03-23T09:52:58;9.38;;;2.30;;
25936;SDS011;13733;51.178;4.450;2023-03-23T09:55:33;10.23;;;2.13;;
25936;SDS011;13733;51.178;4.450;2023-03-23T10:00:46;8.15;;;2.15;;
25936;SDS011;13733;51.178;4.450;2023-03-23T10:03:26;8.38;;;2.13;;
25936;SDS011;13733;51.178;4.450;2023-03-23T10:05:57;5.45;;;1.70;;
25936;SDS011;13733;51.178;4.450;2023-03-23T10:08:27;7.68;;;1.80;;
25936;SDS011;13733;51.178;4.450;2023-03-23T10:11:04;7.60;;;1.95;;
25936;SDS011;13733;51.178;4.450;2023-03-23T10:16:28;4.93;;;1.52;;
25936;SDS011;13733;51.178;4.450;2023-03-23T10:19:12;6.03;;;2.03;;
25936;SDS011;13733;51.178;4.450;2023-03-23T10:21:56;6.70;;;2.30;;
25936;SDS011;13733;51.178;4.450;2023-03-23T10:24:43;4.88;;;2.00;;
25936;SDS011;13733;51.178;4.450;2023-03-23T10:27:31;7.47;;;2.20;;
25936;SDS011;13733;51.178;4.450;2023-03-23T10:35:25;8.82;;;2.78;;
25936;SDS011;13733;51.178;4.450;2023-03-23T10:38:03;13.05;;;2.33;;
25936;SDS011;13733;51.178;4.450;2023-03-23T10:40:34;7.15;;;2.33;;
25936;SDS011;13733;51.178;4.450;2023-03-23T10:43:05;10.05;;;2.85;;
25936;SDS011;13733;51.178;4.450;2023-03-23T10:45:31;10.45;;;2.55;;
25936;SDS011;13733;51.178;4.450;2023-03-23T10:50:50;6.43;;;2.08;;
25936;SDS011;13733;51.178;4.450;2023-03-23T10:53:21;7.65;;;2.63;;
25936;SDS011;13733;51.178;4.450;2023-03-23T10:55:58;7.40;;;2.35;;
25936;SDS011;13733;51.178;4.450;2023-03-23T10:58:29;6.50;;;2.40;;
25936;SDS011;13733;51.178;4.450;2023-03-23T11:00:57;9.30;;;2.35;;
25936;SDS011;13733;51.178;4.450;2023-03-23T11:09:09;6.90;;;2.35;;
25936;SDS011;13733;51.178;4.450;2023-03-23T11:11:39;8.68;;;2.53;;
25936;SDS011;13733;51.178;4.450;2023-03-23T11:17:03;8.68;;;2.42;;
25936;SDS011;13733;51.178;4.450;2023-03-23T11:19:35;7.70;;;3.00;;
25936;SDS011;13733;51.178;4.450;2023-03-23T11:22:13;10.82;;;2.92;;
25936;SDS011;13733;51.178;4.450;2023-03-23T11:24:45;10.88;;;2.92;;
25936;SDS011;13733;51.178;4.450;2023-03-23T11:27:16;10.10;;;3.00;;
25936;SDS011;13733;51.178;4.450;2023-03-23T11:29:49;9.00;;;2.50;;
25936;SDS011;13733;51.178;4.450;2023-03-23T11:32:24;9.00;;;2.80;;
25936;SDS011;13733;51.178;4.450;2023-03-23T11:34:54;9.32;;;2.60;;
25936;SDS011;13733;51.178;4.450;2023-03-23T11:37:33;13.20;;;3.00;;
25936;SDS011;13733;51.178;4.450;2023-03-23T11:42:45;8.40;;;2.58;;
25936;SDS011;13733;51.178;4.450;2023-03-23T11:45:19;9.07;;;2.70;;
25936;SDS011;13733;51.178;4.450;2023-03-23T11:53:14;9.00;;;2.85;;
25936;SDS011;13733;51.178;4.450;2023-03-23T11:58:13;7.15;;;2.75;;
25936;SDS011;13733;51.178;4.450;2023-03-23T12:00:46;12.48;;;3.10;;
25936;SDS011;13733;51.178;4.450;2023-03-23T12:03:27;13.32;;;3.55;;
25936;SDS011;13733;51.178;4.450;2023-03-23T12:06:12;9.30;;;3.22;;
25936;SDS011;13733;51.178;4.450;2023-03-23T12:16:57;14.52;;;3.42;;
25936;SDS011;13733;51.178;4.450;2023-03-23T12:27:09;13.57;;;3.40;;
25936;SDS011;13733;51.178;4.450;2023-03-23T12:35:36;12.60;;;3.00;;
25936;SDS011;13733;51.178;4.450;2023-03-23T12:41:27;15.98;;;3.22;;
25936;SDS011;13733;51.178;4.450;2023-03-23T12:44:03;9.77;;;2.90;;
25936;SDS011;13733;51.178;4.450;2023-03-23T12:51:48;10.13;;;2.40;;
25936;SDS011;13733;51.178;4.450;2023-03-23T12:54:19;8.88;;;2.75;;
25936;SDS011;13733;51.178;4.450;2023-03-23T13:02:25;8.57;;;2.30;;
25936;SDS011;13733;51.178;4.450;2023-03-23T13:07:35;10.23;;;2.63;;
25936;SDS011;13733;51.178;4.450;2023-03-23T13:10:23;9.05;;;2.45;;
25936;SDS011;13733;51.178;4.450;2023-03-23T13:12:53;13.10;;;2.75;;
25936;SDS011;13733;51.178;4.450;2023-03-23T13:20:30;12.45;;;2.72;;
25936;SDS011;13733;51.178;4.450;2023-03-23T13:26:05;12.43;;;2.67;;
25936;SDS011;13733;51.178;4.450;2023-03-23T13:28:55;10.82;;;2.80;;
25936;SDS011;13733;51.178;4.450;2023-03-23T13:34:05;11.77;;;3.05;;
25936;SDS011;13733;51.178;4.450;2023-03-23T13:36:59;9.52;;;2.40;;
25936;SDS011;13733;51.178;4.450;2023-03-23T13:39:38;9.27;;;2.45;;
25936;SDS011;13733;51.178;4.450;2023-03-23T13:42:39;8.02;;;2.63;;
25936;SDS011;13733;51.178;4.450;2023-03-23T13:47:43;10.63;;;3.15;;
25936;SDS011;13733;51.178;4.450;2023-03-23T14:02:59;11.90;;;2.88;;
25936;SDS011;13733;51.178;4.450;2023-03-23T14:05:39;8.80;;;2.63;;
25936;SDS011;13733;51.178;4.450;2023-03-23T14:10:55;12.57;;;3.17;;
25936;SDS011;13733;51.178;4.450;2023-03-23T14:18:36;10.95;;;3.20;;
25936;SDS011;13733;51.178;4.450;2023-03-23T14:21:04;9.88;;;2.60;;
25936;SDS011;13733;51.178;4.450;2023-03-23T14:23:32;9.52;;;2.85;;
25936;SDS011;13733;51.178;4.450;2023-03-23T14:26:00;11.30;;;3.17;;
25936;SDS011;13733;51.178;4.450;2023-03-23T14:28:36;13.38;;;3.20;;
25936;SDS011;13733;51.178;4.450;2023-03-23T14:31:04;10.15;;;2.22;;
25936;SDS011;13733;51.178;4.450;2023-03-23T14:33:38;6.18;;;2.33;;
25936;SDS011;13733;51.178;4.450;2023-03-23T14:36:06;9.52;;;2.65;;
25936;SDS011;13733;51.178;4.450;2023-03-23T14:38:32;10.07;;;2.55;;
25936;SDS011;13733;51.178;4.450;2023-03-23T14:41:03;8.63;;;2.40;;
25936;SDS011;13733;51.178;4.450;2023-03-23T14:43:30;8.60;;;2.60;;
25936;SDS011;13733;51.178;4.450;2023-03-23T14:45:59;8.85;;;2.40;;
25936;SDS011;13733;51.178;4.450;2023-03-23T14:48:27;12.63;;;2.85;;
25936;SDS011;13733;51.178;4.450;2023-03-23T14:50:57;8.30;;;2.55;;
25936;SDS011;13733;51.178;4.450;2023-03-23T14:53:25;9.05;;;2.72;;
25936;SDS011;13733;51.178;4.450;2023-03-23T14:55:59;14.45;;;3.38;;
25936;SDS011;13733;51.178;4.450;2023-03-23T14:58:27;8.68;;;2.60;;
25936;SDS011;13733;51.178;4.450;2023-03-23T15:03:22;11.95;;;3.10;;
25936;SDS011;13733;51.178;4.450;2023-03-23T15:05:51;12.23;;;3.67;;
25936;SDS011;13733;51.178;4.450;2023-03-23T15:08:25;8.57;;;3.00;;
25936;SDS011;13733;51.178;4.450;2023-03-23T15:11:11;9.63;;;2.95;;
25936;SDS011;13733;51.178;4.450;2023-03-23T15:13:54;12.45;;;3.17;;
25936;SDS011;13733;51.178;4.450;2023-03-23T15:16:32;11.98;;;3.10;;
25936;SDS011;13733;51.178;4.450;2023-03-23T15:19:03;12.27;;;3.40;;
25936;SDS011;13733;51.178;4.450;2023-03-23T15:21:32;11.85;;;3.22;;
25936;SDS011;13733;51.178;4.450;2023-03-23T15:24:01;12.38;;;3.50;;
25936;SDS011;13733;51.178;4.450;2023-03-23T15:26:44;13.85;;;3.08;;
25936;SDS011;13733;51.178;4.450;2023-03-23T15:31:45;12.63;;;2.88;;
25936;SDS011;13733;51.178;4.450;2023-03-23T15:34:24;10.23;;;3.08;;
25936;SDS011;13733;51.178;4.450;2023-03-23T15:36:57;9.85;;;2.80;;
25936;SDS011;13733;51.178;4.450;2023-03-23T15:39:25;13.70;;;3.65;;
25936;SDS011;13733;51.178;4.450;2023-03-23T15:41:52;11.65;;;2.90;;
25936;SDS011;13733;51.178;4.450;2023-03-23T15:44:21;13.15;;;3.63;;
25936;SDS011;13733;51.178;4.450;2023-03-23T15:47:01;11.85;;;3.22;;
25936;SDS011;13733;51.178;4.450;2023-03-23T15:49:37;12.55;;;3.50;;
25936;SDS011;13733;51.178;4.450;2023-03-23T15:52:03;11.45;;;3.42;;
25936;SDS011;13733;51.178;4.450;2023-03-23T15:54:30;11.10;;;3.05;;
25936;SDS011;13733;51.178;4.450;2023-03-23T15:56:57;13.50;;;3.13;;
25936;SDS011;13733;51.178;4.450;2023-03-23T15:59:23;11.70;;;3.40;;
25936;SDS011;13733;51.178;4.450;2023-03-23T16:01:48;8.80;;;3.00;;
25936;SDS011;13733;51.178;4.450;2023-03-23T16:04:16;15.82;;;3.70;;
25936;SDS011;13733;51.178;4.450;2023-03-23T16:06:44;16.50;;;3.60;;
25936;SDS011;13733;51.178;4.450;2023-03-23T16:09:18;14.07;;;3.55;;
25936;SDS011;13733;51.178;4.450;2023-03-23T16:11:44;13.82;;;3.60;;
25936;SDS011;13733;51.178;4.450;2023-03-23T16:14:10;13.15;;;3.08;;
25936;SDS011;13733;51.178;4.450;2023-03-23T16:16:46;12.75;;;3.65;;
25936;SDS011;13733;51.178;4.450;2023-03-23T16:19:14;11.07;;;2.97;;
25936;SDS011;13733;51.178;4.450;2023-03-23T16:21:40;13.35;;;3.70;;
25936;SDS011;13733;51.178;4.450;2023-03-23T16:24:07;12.32;;;3.75;;
25936;SDS011;13733;51.178;4.450;2023-03-23T16:26:33;11.13;;;4.07;;
25936;SDS011;13733;51.178;4.450;2023-03-23T16:28:59;9.23;;;3.40;;
25936;SDS011;13733;51.178;4.450;2023-03-23T16:31:27;12.52;;;3.45;;
25936;SDS011;13733;51.178;4.450;2023-03-23T16:33:53;9.68;;;3.55;;
25936;SDS011;13733;51.178;4.450;2023-03-23T16:36:19;17.85;;;4.18;;
25936;SDS011;13733;51.178;4.450;2023-03-23T16:38:45;12.13;;;3.78;;
25936;SDS011;13733;51.178;4.450;2023-03-23T16:41:11;15.52;;;3.70;;
25936;SDS011;13733;51.178;4.450;2023-03-23T16:43:37;12.00;;;3.55;;
25936;SDS011;13733;51.178;4.450;2023-03-23T16:46:02;9.50;;;3.58;;
25936;SDS011;13733;51.178;4.450;2023-03-23T16:48:28;15.27;;;4.13;;
25936;SDS011;13733;51.178;4.450;2023-03-23T16:50:54;12.15;;;3.97;;
25936;SDS011;13733;51.178;4.450;2023-03-23T16:53:20;16.80;;;4.15;;
25936;SDS011;13733;51.178;4.450;2023-03-23T16:55:47;13.93;;;3.95;;
25936;SDS011;13733;51.178;4.450;2023-03-23T16:58:15;15.27;;;4.03;;
25936;SDS011;13733;51.178;4.450;2023-03-23T17:00:41;15.80;;;3.95;;
25936;SDS011;13733;51.178;4.450;2023-03-23T17:03:11;15.57;;;4.13;;
25936;SDS011;13733;51.178;4.450;2023-03-23T17:05:37;12.00;;;3.25;;
25936;SDS011;13733;51.178;4.450;2023-03-23T17:08:03;14.18;;;3.90;;
25936;SDS011;13733;51.178;4.450;2023-03-23T17:10:30;9.63;;;2.95;;
25936;SDS011;13733;51.178;4.450;2023-03-23T17:12:56;14.40;;;3.42;;
25936;SDS011;13733;51.178;4.450;2023-03-23T17:15:22;9.70;;;2.50;;
25936;SDS011;13733;51.178;4.450;2023-03-23T17:17:51;11.55;;;2.90;;
25936;SDS011;13733;51.178;4.450;2023-03-23T17:20:18;7.43;;;2.75;;
25936;SDS011;13733;51.178;4.450;2023-03-23T17:22:45;12.02;;;2.72;;
25936;SDS011;13733;51.178;4.450;2023-03-23T17:25:11;11.38;;;3.13;;
25936;SDS011;13733;51.178;4.450;2023-03-23T17:27:37;13.90;;;3.47;;
25936;SDS011;13733;51.178;4.450;2023-03-23T17:30:04;9.68;;;3.10;;
25936;SDS011;13733;51.178;4.450;2023-03-23T17:32:32;12.45;;;3.33;;
25936;SDS011;13733;51.178;4.450;2023-03-23T17:34:58;14.50;;;3.28;;